Academy, Texas
Current Conditions -  °F | °C
As of 1:55 PM on Wednesday 17 Dec 2014 (Local Time) from KTPL Reporting Station
Overcast Overcast  
Wind Chill: 43°   Ceiling: 2100
Heat Index: 48°   Visibility: 10mi
Dew Point: 37°   Wind: 13mph
Humidity: 66%   Direction: 100°E
Pressure: 30.08"   Gusts: NA
Location:  30.9809°N, 97.3415°W
Report Text: KTPL 171955Z AUTO 10011KT 10SM BKN021 OVC025 09/03 A3008 RMK AO1 LTG DSNT SW
Loading
Personal Weather Stations






























Interactive Weather Map New forecast layout! Learn more

10-Day Weather Forecast

Advertisements
Track Severe Weather on mobile